Etusivu
METAR-TAF:

METAR-TAF

Lentoasemat :

Arlandan kansainvälinen lentoasema

Tukholma-Arlanda, Ruotsi

Leveyspiiri: 59-39N, Pituuspiiri: 017-57E, korkeus merenpinnasta: 38 m

Tämänhetkinen sää

Tämä raportti tehtiin 34 minuuttia sitten, kello 10.20 UTC
Tuuli 13 kn lännestä
Lämpötila 2°C
Kosteus 55%
Ilmanpaine 1003 hPa
Näkyvyys 10 km tai enemmän
ei pilviä alle 1500 m:ssä eikä cumulonimbus-pilviä

METAR: ESSA 241020Z 27013KT CAVOK 02/M06 Q1003 R01L/09//95 R08/09//95 R01R/09//95 NOSIG

Aika: 11:54 (10:54 UTC)

Sääennuste

Tämä raportti tehtiin 5 tuntia ja 24 minuuttia sitten, kello 05.30 UTC
Ennuste voimassa 24. päivästä klo 06 UTC - 25. päivään klo 06 UTC
Tuuli 9 kn lännestä
Näkyvyys 10 km tai enemmän
ei pilviä alle 1500 m:ssä eikä cumulonimbus-pilviä

TAF: ESSA 240530Z 2406/2506 27009KT CAVOK

Säähavainnot ja -ennusteet yli 4000 lentoasemalta (METAR- ja TAF-raportit).

Käytössä olevat sääasemat on merkitty karttaan keltaisilla ja punaisilla pisteillä.

Aseta hiiri pisteen päälle nähdäksesi sääaseman nimen.

Klikkaa sitten nähdäksesi säähavainnot ja -ennusteet.

Kartan vaihtaminen: klikkaa mustalla rastilla varustettuja vihreitä pisteitä, niin voit zoomata sisään; viivalla varustettua vihreää pistettä, niin voit zoomata ulos tai vihreitä nuolia, niin pääset viereisille kartoille.


METAR-TAF: